Time;durP1;ratioP1;P1;durP2;ratioP2;P2;SDS_P1;SDS_P2;PMS_P1;PMS_P2;Temp;Humidity;BMP_temperature;BMP_pressure;BME280_temperature;BME280_humidity;BME280_pressure;Samples;Min_cycle;Max_cycle;Signal;HPM_P1;HPM_P2
2022/05/25 00:05:31;;;;;;;6.87;3.40;;;;;;;16.61;81.39;100121.41;18244667;32;20341;-65
2022/05/25 00:15:36;;;;;;;7.25;3.40;;;;;;;17.11;78.48;100103.16;18245555;32;20470;-65
2022/05/25 00:25:40;;;;;;;7.03;3.55;;;;;;;16.71;80.71;100111.44;18244361;32;20435;-65
2022/05/25 00:35:44;;;;;;;7.00;3.22;;;;;;;17.85;76.12;100087.31;18243439;32;20161;-65
2022/05/25 00:45:50;;;;;;;6.28;3.40;;;;;;;17.13;79.18;100102.19;18243447;32;20116;-65
2022/05/25 00:55:55;;;;;;;7.85;3.78;;;;;;;17.30;78.82;100113.91;18243257;32;20113;-65
2022/05/25 01:06:02;;;;;;;8.32;3.95;;;;;;;17.44;77.99;100127.50;18243092;32;20098;-65
2022/05/25 01:16:13;;;;;;;7.22;3.25;;;;;;;17.28;77.62;100131.56;18243148;32;20137;-65
2022/05/25 01:26:53;;;;;;;7.18;3.08;;;;;;;16.73;79.32;100135.97;18242842;32;20150;-64
2022/05/25 01:37:05;;;;;;;7.50;3.60;;;;;;;17.59;74.82;100094.41;18234793;32;20101;-65
2022/05/25 01:47:10;;;;;;;8.10;2.90;;;;;;;16.70;79.94;100108.84;18241356;32;20094;-65
2022/05/25 01:57:15;;;;;;;6.32;3.28;;;;;;;16.88;79.50;100144.28;18242080;32;20438;-65
2022/05/25 02:07:47;;;;;;;8.10;3.42;;;;;;;17.30;76.72;100103.34;18241683;32;20120;-65
2022/05/25 02:17:54;;;;;;;6.23;3.27;;;;;;;16.90;80.38;100105.56;18223331;32;20102;-64
2022/05/25 02:28:01;;;;;;;7.05;3.25;;;;;;;16.58;79.77;100126.78;18241235;32;20370;-64
2022/05/25 02:38:07;;;;;;;7.18;3.20;;;;;;;16.81;78.74;100122.53;18263068;32;20138;-65
2022/05/25 02:48:10;;;;;;;6.75;3.22;;;;;;;17.49;74.88;100093.03;18302902;32;20085;-64
2022/05/25 02:58:15;;;;;;;7.68;2.97;;;;;;;17.31;76.52;100100.69;18302890;32;20102;-64
2022/05/25 03:08:18;;;;;;;8.93;3.90;;;;;;;17.02;77.44;100099.91;18301986;32;20116;-64
2022/05/25 03:18:22;;;;;;;5.75;3.12;;;;;;;17.28;76.70;100108.72;18298563;32;20656;-65
2022/05/25 03:28:25;;;;;;;7.87;3.60;;;;;;;17.36;75.85;100107.56;18298235;32;20116;-65
2022/05/25 03:38:30;;;;;;;6.97;2.95;;;;;;;17.28;77.14;100111.34;18297190;32;20094;-65
2022/05/25 03:48:34;;;;;;;6.95;3.17;;;;;;;17.81;73.16;100116.53;18300239;32;20476;-65
2022/05/25 03:58:39;;;;;;;7.80;3.72;;;;;;;17.48;76.10;100122.97;18295044;32;20117;-65
2022/05/25 04:08:42;;;;;;;9.25;2.87;;;;;;;17.37;76.77;100136.53;18302100;32;20098;-65
2022/05/25 04:18:46;;;;;;;7.50;2.83;;;;;;;17.19;76.20;100165.25;18306733;32;20098;-65
2022/05/25 04:28:49;;;;;;;7.60;3.10;;;;;;;17.37;76.42;100172.63;18306928;32;20082;-65
2022/05/25 04:38:54;;;;;;;9.23;3.47;;;;;;;17.40;76.29;100159.31;18305777;32;20118;-65
2022/05/25 04:49:00;;;;;;;6.80;3.00;;;;;;;17.39;76.97;100149.69;18243788;32;20386;-65
2022/05/25 04:59:05;;;;;;;8.00;3.45;;;;;;;18.52;71.37;100132.34;18238724;32;157378;-65
2022/05/25 05:09:08;;;;;;;8.95;3.08;;;;;;;18.47;73.66;100130.78;18243230;32;20699;-65
2022/05/25 05:19:13;;;;;;;6.35;2.90;;;;;;;19.00;70.46;100137.47;18242889;32;20089;-65
2022/05/25 05:29:16;;;;;;;4.78;2.67;;;;;;;18.69;70.28;100155.47;18242721;32;20097;-65
2022/05/25 05:39:22;;;;;;;6.78;3.10;;;;;;;19.12;68.11;100183.75;18242260;32;20085;-64
2022/05/25 05:49:26;;;;;;;5.97;2.62;;;;;;;19.20;68.72;100176.37;18243247;32;20113;-64
2022/05/25 05:59:30;;;;;;;4.62;2.15;;;;;;;19.18;67.93;100186.16;18241759;32;20094;-64
2022/05/25 06:09:34;;;;;;;4.28;2.30;;;;;;;19.12;69.18;100200.50;18240235;32;20113;-65
2022/05/25 06:19:38;;;;;;;5.30;2.30;;;;;;;19.27;68.22;100209.59;18241184;32;20454;-65
2022/05/25 06:29:43;;;;;;;4.43;2.30;;;;;;;20.52;63.42;100218.28;18238558;32;20117;-65
2022/05/25 06:39:49;;;;;;;5.62;2.33;;;;;;;21.62;62.12;100206.78;18227415;32;20121;-65
2022/05/25 06:49:55;;;;;;;3.87;2.30;;;;;;;20.81;62.70;100212.53;18246329;32;20735;-65
2022/05/25 07:00:00;;;;;;;3.90;2.15;;;;;;;21.97;57.51;100197.09;18273160;32;20099;-66
2022/05/25 07:10:04;;;;;;;6.62;2.10;;;;;;;22.98;53.29;100196.91;18253253;32;20124;-65
2022/05/25 07:20:09;;;;;;;5.43;2.75;;;;;;;22.58;56.70;100189.37;18300623;32;20171;-65
2022/05/25 07:30:14;;;;;;;5.65;2.30;;;;;;;23.36;57.05;100179.63;18292281;32;20784;-65
2022/05/25 07:40:22;;;;;;;5.45;2.05;;;;;;;24.21;50.47;100193.16;18252748;32;20138;-65
2022/05/25 07:50:25;;;;;;;6.68;2.50;;;;;;;26.23;45.44;100183.44;18246190;32;20090;-65
2022/05/25 08:00:30;;;;;;;4.50;2.22;;;;;;;24.18;53.71;100189.84;18298686;32;20134;-65
2022/05/25 08:10:34;;;;;;;6.10;2.53;;;;;;;23.53;54.36;100198.12;18306703;32;20738;-65
2022/05/25 08:20:38;;;;;;;4.35;2.15;;;;;;;23.18;54.15;100202.87;18308089;32;20094;-65
2022/05/25 08:30:43;;;;;;;5.75;2.40;;;;;;;24.60;53.02;100195.19;18261869;32;20101;-66
2022/05/25 08:40:48;;;;;;;7.53;2.72;;;;;;;24.61;51.80;100188.91;18243890;32;20447;-65
2022/05/25 08:50:54;;;;;;;6.35;2.55;;;;;;;24.39;52.57;100183.13;18255993;32;20101;-65
2022/05/25 09:01:00;;;;;;;5.30;2.62;;;;;;;24.56;52.52;100173.19;18305112;32;20453;-65
2022/05/25 09:11:07;;;;;;;6.28;2.67;;;;;;;25.63;48.67;100174.16;18277528;32;20102;-65
2022/05/25 09:21:12;;;;;;;4.72;2.12;;;;;;;26.63;44.88;100172.50;18243197;32;20086;-65
2022/05/25 09:31:20;;;;;;;5.53;2.50;;;;;;;27.45;44.85;100170.91;18242395;32;20085;-66
2022/05/25 09:41:27;;;;;;;5.05;2.60;;;;;;;26.40;47.81;100168.84;18242534;32;20106;-66
2022/05/25 09:51:33;;;;;;;6.45;2.80;;;;;;;26.17;50.47;100180.19;18242247;32;20087;-65
2022/05/25 10:01:44;;;;;;;6.47;3.28;;;;;;;26.24;49.13;100172.63;18257356;32;20493;-65
2022/05/25 10:11:49;;;;;;;4.87;2.62;;;;;;;26.23;49.65;100170.06;18304119;32;20101;-66
2022/05/25 10:21:56;;;;;;;6.97;3.40;;;;;;;27.44;42.25;100161.16;18304330;32;20120;-65
2022/05/25 10:42:22;;;;;;;;;;;;;;;26.82;46.51;100171.12;18288756;32;20232;-64
2022/05/25 10:52:33;;;;;;;5.72;2.83;;;;;;;27.08;44.21;100168.34;18302800;32;20095;-65
2022/05/25 11:02:51;;;;;;;5.22;3.03;;;;;;;27.13;47.58;100156.31;18289092;32;20085;-65
2022/05/25 11:13:30;;;;;;;6.93;2.92;;;;;;;27.60;45.63;100151.94;18302503;32;20116;-65
2022/05/25 11:24:06;;;;;;;7.35;3.00;;;;;;;27.28;50.63;100167.69;18298241;32;20093;-65
2022/05/25 11:34:18;;;;;;;7.43;3.30;;;;;;;27.26;48.26;100177.69;18307647;32;20468;-65
2022/05/25 11:44:52;;;;;;;5.50;2.72;;;;;;;27.72;48.73;100168.88;18294141;32;20109;-66
2022/05/25 11:55:03;;;;;;;5.85;3.03;;;;;;;27.45;46.93;100176.25;18305399;32;20139;-65
2022/05/25 12:05:21;;;;;;;5.95;3.12;;;;;;;25.98;52.46;100194.03;18304407;32;20129;-65
2022/05/25 12:15:28;;;;;;;5.12;3.05;;;;;;;26.09;51.87;100182.59;18294002;32;20101;-65
2022/05/25 12:25:34;;;;;;;7.03;3.37;;;;;;;25.95;51.86;100188.91;18292707;32;20416;-65
2022/05/25 12:35:39;;;;;;;6.22;3.25;;;;;;;25.56;52.04;100196.94;18307245;32;20118;-65
2022/05/25 12:56:32;;;;;;;7.65;3.58;;;;;;;26.43;51.13;100177.50;18293760;32;20097;-65
2022/05/25 13:07:12;;;;;;;7.65;3.47;;;;;;;27.68;46.34;100170.97;18306339;32;20108;-65
2022/05/25 13:17:48;;;;;;;6.82;3.45;;;;;;;28.62;43.46;100170.66;18305112;32;20448;-65
2022/05/25 13:28:19;;;;;;;6.93;3.53;;;;;;;28.49;45.35;100165.44;18306269;32;20145;-65
2022/05/25 13:38:37;;;;;;;6.18;3.85;;;;;;;28.80;43.67;100170.97;18031223;32;20146;-65
2022/05/25 13:48:48;;;;;;;5.75;3.20;;;;;;;29.04;43.48;100179.84;18045067;32;20126;-65
2022/05/25 13:58:58;;;;;;;6.62;3.20;;;;;;;28.35;42.71;100174.62;17922300;33;20138;-66
2022/05/25 14:19:28;;;;;;;5.03;2.67;;;;;;;27.58;43.88;100202.13;18303084;32;20113;-65
2022/05/25 14:29:32;;;;;;;5.75;3.05;;;;;;;26.98;44.02;100222.63;18301622;32;20866;-68
2022/05/25 14:39:36;;;;;;;6.97;3.30;;;;;;;27.01;44.44;100225.06;18285714;32;20124;-66
2022/05/25 14:49:40;;;;;;;7.53;3.22;;;;;;;27.19;43.21;100238.06;18286651;32;20112;-65
2022/05/25 14:59:47;;;;;;;6.57;3.40;;;;;;;27.09;44.96;100245.06;18299994;32;20113;-65
2022/05/25 15:09:51;;;;;;;6.72;3.25;;;;;;;26.67;46.47;100251.63;18299232;32;20408;-66
2022/05/25 15:20:06;;;;;;;6.97;3.83;;;;;;;25.98;46.67;100263.56;18293434;32;20124;-65
2022/05/25 15:30:27;;;;;;;7.43;4.05;;;;;;;25.54;48.41;100283.50;18281848;32;20132;-65
2022/05/25 15:40:33;;;;;;;7.03;3.83;;;;;;;25.11;49.12;100296.06;18297859;32;20109;-65
2022/05/25 15:50:43;;;;;;;9.57;4.32;;;;;;;25.08;49.70;100282.88;18280257;32;20093;-66
2022/05/25 16:00:50;;;;;;;2.92;1.77;;;;;;;25.18;50.18;100277.81;18298673;32;20156;-65
2022/05/25 16:10:53;;;;;;;2.67;1.42;;;;;;;24.97;48.54;100291.59;18303343;32;20112;-66
2022/05/25 16:20:59;;;;;;;1.85;1.00;;;;;;;24.55;49.77;100304.03;18305596;32;20121;-66
2022/05/25 16:31:03;;;;;;;1.20;0.90;;;;;;;24.31;49.59;100320.62;18304052;32;20101;-69
2022/05/25 16:41:13;;;;;;;3.70;1.20;;;;;;;24.18;49.65;100256.50;18302699;32;20438;-66
2022/05/25 16:51:17;;;;;;;1.87;0.93;;;;;;;23.87;50.36;100277.00;18285593;32;20116;-67
2022/05/25 17:01:21;;;;;;;2.00;1.12;;;;;;;23.67;50.93;100303.88;18289292;32;20445;-66
2022/05/25 17:11:25;;;;;;;3.08;1.30;;;;;;;23.60;51.91;100323.00;18288339;32;20110;-66
2022/05/25 17:21:31;;;;;;;1.98;1.05;;;;;;;23.64;50.51;100333.38;18289026;32;20116;-66
2022/05/25 17:31:35;;;;;;;1.58;1.00;;;;;;;23.30;51.15;100345.97;18303011;32;20093;-68
2022/05/25 17:41:50;;;;;;;2.33;1.15;;;;;;;22.58;53.07;100354.28;18289281;32;20123;-66
2022/05/25 17:51:54;;;;;;;1.35;1.00;;;;;;;22.35;54.82;100348.38;18289503;32;20094;-65
2022/05/25 18:01:59;;;;;;;1.65;1.10;;;;;;;21.99;56.41;100389.19;18303154;32;20516;-66
2022/05/25 18:12:05;;;;;;;1.70;1.05;;;;;;;21.78;58.15;100399.09;18303401;32;20094;-66
2022/05/25 18:22:10;;;;;;;2.00;1.10;;;;;;;21.15;59.83;100388.75;18284540;32;20093;-66
2022/05/25 18:32:13;;;;;;;1.55;0.95;;;;;;;21.09;58.92;100399.66;18298774;32;20442;-66
2022/05/25 18:42:18;;;;;;;2.10;1.00;;;;;;;21.55;57.93;100401.91;18302183;32;20093;-66
2022/05/25 18:52:21;;;;;;;1.20;0.82;;;;;;;21.23;58.47;100403.44;18302181;32;20124;-66
2022/05/25 19:02:26;;;;;;;2.75;1.20;;;;;;;21.24;59.39;100426.38;18295619;32;20958;-66
2022/05/25 19:12:29;;;;;;;2.70;1.02;;;;;;;20.95;58.98;100452.47;18285850;32;20102;-66
2022/05/25 19:22:37;;;;;;;1.73;1.10;;;;;;;20.87;59.64;100482.00;18285545;32;20172;-66
2022/05/25 19:32:41;;;;;;;1.73;1.00;;;;;;;20.71;60.57;100471.19;18297070;32;20093;-66
2022/05/25 19:42:48;;;;;;;1.35;1.02;;;;;;;20.45;60.98;100478.47;18303793;32;20089;-66
2022/05/25 19:52:51;;;;;;;3.17;1.50;;;;;;;19.98;62.71;100493.59;18306392;32;20638;-66
2022/05/25 20:02:56;;;;;;;3.17;1.60;;;;;;;20.09;61.65;100471.97;18289549;32;20105;-66
2022/05/25 20:13:00;;;;;;;2.92;1.50;;;;;;;19.68;62.82;100465.62;18291156;32;20113;-66
2022/05/25 20:23:05;;;;;;;4.30;1.77;;;;;;;19.53;62.55;100461.75;18303970;32;20116;-67
2022/05/25 20:33:09;;;;;;;2.72;1.50;;;;;;;19.35;62.99;100479.22;18306890;32;20108;-66
2022/05/25 20:43:14;;;;;;;3.42;1.48;;;;;;;19.02;63.48;100494.56;18289517;32;20094;-66
2022/05/25 20:53:18;;;;;;;2.50;1.27;;;;;;;18.89;63.60;100508.19;18306683;32;20144;-66
2022/05/25 21:03:24;;;;;;;2.25;1.15;;;;;;;19.41;61.20;100510.75;18306592;32;20118;-66
2022/05/25 21:13:28;;;;;;;3.33;1.27;;;;;;;18.79;63.40;100502.34;18306634;32;20096;-65
2022/05/25 21:23:32;;;;;;;1.95;1.20;;;;;;;18.70;63.97;100505.31;18306339;32;20097;-65
2022/05/25 21:33:36;;;;;;;1.87;1.10;;;;;;;18.38;64.03;100512.56;18305979;32;20425;-65
2022/05/25 21:43:41;;;;;;;2.25;1.30;;;;;;;18.64;63.33;100516.97;18305503;32;20472;-65
2022/05/25 21:53:45;;;;;;;1.48;1.00;;;;;;;18.71;61.96;100529.06;18305525;32;20112;-65
2022/05/25 22:03:49;;;;;;;2.35;1.10;;;;;;;18.72;62.57;100557.22;18289825;32;20106;-64
2022/05/25 22:13:53;;;;;;;2.45;1.02;;;;;;;18.58;61.44;100607.03;18304683;32;20090;-65
2022/05/25 22:24:00;;;;;;;4.35;1.58;;;;;;;18.09;60.89;100612.97;18304345;32;20105;-65
2022/05/25 22:34:04;;;;;;;2.28;1.10;;;;;;;18.27;60.42;100635.34;18303942;32;20660;-65
2022/05/25 22:44:10;;;;;;;1.90;1.17;;;;;;;18.16;60.98;100637.41;18303684;32;20098;-65
2022/05/25 22:54:13;;;;;;;1.85;1.15;;;;;;;17.58;62.63;100625.84;18303180;32;20101;-65
2022/05/25 23:04:18;;;;;;;2.85;1.12;;;;;;;17.96;60.83;100624.78;18302536;32;20105;-65
2022/05/25 23:14:21;;;;;;;1.60;1.00;;;;;;;17.34;62.92;100638.78;18318903;32;20111;-65
2022/05/25 23:34:46;;;;;;;;;;;;;;;17.60;58.36;100645.12;18322392;32;20097;-65
2022/05/25 23:44:51;;;;;;;1.15;0.90;;;;;;;17.80;56.41;100658.69;18321816;32;20027;-65
2022/05/25 23:54:56;;;;;;;1.20;0.80;;;;;;;18.01;52.83;100675.69;18306585;32;20101;-65
